sensor_id;sensor_type;location;lat;lon;timestamp;pressure;altitude;pressure_sealevel;temperature;humidity
5298;BME280;14738;42.668;23.250;2023-02-19T00:00:30;48437.94;;;-141.90;46.48
5298;BME280;14738;42.668;23.250;2023-02-19T00:02:56;48420.09;;;-141.90;46.45
5298;BME280;14738;42.668;23.250;2023-02-19T00:05:22;48426.03;;;-141.90;46.57
5298;BME280;14738;42.668;23.250;2023-02-19T00:07:48;48426.03;;;-141.90;46.82
5298;BME280;14738;42.668;23.250;2023-02-19T00:10:13;48451.84;;;-141.90;46.71
5298;BME280;14738;42.668;23.250;2023-02-19T00:12:39;48430.00;;;-141.90;47.00
5298;BME280;14738;42.668;23.250;2023-02-19T00:15:04;48424.06;;;-141.90;47.08
5298;BME280;14738;42.668;23.250;2023-02-19T00:17:30;48432.00;;;-141.90;47.35
5298;BME280;14738;42.668;23.250;2023-02-19T00:19:56;48426.03;;;-141.90;47.65
5298;BME280;14738;42.668;23.250;2023-02-19T00:22:22;48451.84;;;-141.90;47.33
5298;BME280;14738;42.668;23.250;2023-02-19T00:24:48;48424.06;;;-141.90;48.13
5298;BME280;14738;42.668;23.250;2023-02-19T00:27:13;48441.91;;;-141.90;47.73
5298;BME280;14738;42.668;23.250;2023-02-19T00:29:39;48428.03;;;-141.90;48.05
5298;BME280;14738;42.668;23.250;2023-02-19T00:32:04;48433.97;;;-141.90;47.85
5298;BME280;14738;42.668;23.250;2023-02-19T00:34:30;48439.94;;;-141.90;48.05
5298;BME280;14738;42.668;23.250;2023-02-19T00:36:55;48422.06;;;-141.90;48.22
5298;BME280;14738;42.668;23.250;2023-02-19T00:39:20;48449.84;;;-141.90;48.39
5298;BME280;14738;42.668;23.250;2023-02-19T00:41:46;48433.97;;;-141.90;49.03
5298;BME280;14738;42.668;23.250;2023-02-19T00:44:12;48443.91;;;-141.90;49.11
5298;BME280;14738;42.668;23.250;2023-02-19T00:46:44;48455.81;;;-141.90;49.63
5298;BME280;14738;42.668;23.250;2023-02-19T00:49:19;48443.91;;;-141.90;49.67
5298;BME280;14738;42.668;23.250;2023-02-19T00:51:45;48433.97;;;-141.90;49.52
5298;BME280;14738;42.668;23.250;2023-02-19T00:54:11;48461.78;;;-141.90;49.51
5298;BME280;14738;42.668;23.250;2023-02-19T00:56:37;48416.09;;;-141.90;48.64
5298;BME280;14738;42.668;23.250;2023-02-19T00:59:03;48447.88;;;-141.90;48.84
5298;BME280;14738;42.668;23.250;2023-02-19T01:01:28;48424.06;;;-141.90;48.94
5298;BME280;14738;42.668;23.250;2023-02-19T01:03:54;48418.09;;;-141.90;48.66
5298;BME280;14738;42.668;23.250;2023-02-19T01:06:21;48455.81;;;-141.90;48.69
5298;BME280;14738;42.668;23.250;2023-02-19T01:08:47;48445.88;;;-141.90;48.32
5298;BME280;14738;42.668;23.250;2023-02-19T01:11:13;48455.81;;;-141.90;47.94
5298;BME280;14738;42.668;23.250;2023-02-19T01:13:39;48461.78;;;-141.90;47.56
5298;BME280;14738;42.668;23.250;2023-02-19T01:18:34;48441.91;;;-141.90;45.71
5298;BME280;14738;42.668;23.250;2023-02-19T01:21:07;48441.91;;;-141.90;45.48
5298;BME280;14738;42.668;23.250;2023-02-19T01:23:33;48416.09;;;-141.90;45.55
5298;BME280;14738;42.668;23.250;2023-02-19T01:25:59;48430.00;;;-141.90;45.46
5298;BME280;14738;42.668;23.250;2023-02-19T01:28:27;48432.00;;;-141.90;45.36
5298;BME280;14738;42.668;23.250;2023-02-19T01:30:53;48435.97;;;-141.90;45.86
5298;BME280;14738;42.668;23.250;2023-02-19T01:33:19;48445.88;;;-141.90;44.98
5298;BME280;14738;42.668;23.250;2023-02-19T01:35:44;48439.94;;;-141.90;45.16
5298;BME280;14738;42.668;23.250;2023-02-19T01:38:09;48424.06;;;-141.90;45.73
5298;BME280;14738;42.668;23.250;2023-02-19T01:40:35;48433.97;;;-141.90;45.85
5298;BME280;14738;42.668;23.250;2023-02-19T01:43:00;48426.03;;;-141.90;46.02
5298;BME280;14738;42.668;23.250;2023-02-19T01:45:31;48439.94;;;-141.90;46.89
5298;BME280;14738;42.668;23.250;2023-02-19T01:50:31;48432.00;;;-141.90;46.96
5298;BME280;14738;42.668;23.250;2023-02-19T01:52:58;48392.28;;;-141.90;47.33
5298;BME280;14738;42.668;23.250;2023-02-19T01:55:28;48449.84;;;-141.90;47.39
5298;BME280;14738;42.668;23.250;2023-02-19T01:57:54;48435.97;;;-141.90;47.83
5298;BME280;14738;42.668;23.250;2023-02-19T02:00:20;48449.84;;;-141.90;48.07
5298;BME280;14738;42.668;23.250;2023-02-19T02:02:51;48437.94;;;-141.90;47.91
5298;BME280;14738;42.668;23.250;2023-02-19T02:05:24;48428.03;;;-141.90;47.98
5298;BME280;14738;42.668;23.250;2023-02-19T02:07:55;48441.91;;;-141.90;47.52
5298;BME280;14738;42.668;23.250;2023-02-19T02:10:40;48465.75;;;-141.90;47.75
5298;BME280;14738;42.668;23.250;2023-02-19T02:13:06;48433.97;;;-141.90;48.15
5298;BME280;14738;42.668;23.250;2023-02-19T02:15:51;48430.00;;;-141.90;47.86
5298;BME280;14738;42.668;23.250;2023-02-19T02:32:44;48430.00;;;-141.90;46.55
5298;BME280;14738;42.668;23.250;2023-02-19T02:35:21;48430.00;;;-141.90;46.59
5298;BME280;14738;42.668;23.250;2023-02-19T02:37:48;48418.09;;;-141.90;46.89
5298;BME280;14738;42.668;23.250;2023-02-19T02:40:15;48402.22;;;-141.90;47.26
5298;BME280;14738;42.668;23.250;2023-02-19T02:42:42;48432.00;;;-141.90;47.35
5298;BME280;14738;42.668;23.250;2023-02-19T02:48:12;48455.81;;;-141.90;47.35
5298;BME280;14738;42.668;23.250;2023-02-19T02:51:00;48426.03;;;-141.90;47.70
5298;BME280;14738;42.668;23.250;2023-02-19T02:53:35;48416.09;;;-141.90;48.00
5298;BME280;14738;42.668;23.250;2023-02-19T02:56:22;48441.91;;;-141.90;48.32
5298;BME280;14738;42.668;23.250;2023-02-19T02:58:50;48430.00;;;-141.90;48.15
5298;BME280;14738;42.668;23.250;2023-02-19T03:01:24;48455.81;;;-141.90;48.10
5298;BME280;14738;42.668;23.250;2023-02-19T03:07:06;48461.78;;;-141.90;48.40
5298;BME280;14738;42.668;23.250;2023-02-19T03:09:40;48412.13;;;-141.90;48.15
5298;BME280;14738;42.668;23.250;2023-02-19T03:12:13;48457.81;;;-141.90;45.68
5298;BME280;14738;42.668;23.250;2023-02-19T03:15:03;48447.88;;;-141.90;44.12
5298;BME280;14738;42.668;23.250;2023-02-19T03:17:52;48414.13;;;-141.90;43.55
5298;BME280;14738;42.668;23.250;2023-02-19T03:20:41;48420.09;;;-141.90;42.27
5298;BME280;14738;42.668;23.250;2023-02-19T03:23:11;48418.09;;;-141.90;41.64
5298;BME280;14738;42.668;23.250;2023-02-19T03:25:38;48390.31;;;-141.90;40.94
5298;BME280;14738;42.668;23.250;2023-02-19T03:28:25;48392.28;;;-141.90;40.61
5298;BME280;14738;42.668;23.250;2023-02-19T03:31:14;48451.84;;;-141.90;39.51
5298;BME280;14738;42.668;23.250;2023-02-19T03:33:44;48418.09;;;-141.90;39.05
5298;BME280;14738;42.668;23.250;2023-02-19T03:36:12;48437.94;;;-141.90;38.87
5298;BME280;14738;42.668;23.250;2023-02-19T03:38:57;48418.09;;;-141.90;38.43
5298;BME280;14738;42.668;23.250;2023-02-19T03:41:40;48408.16;;;-141.90;38.19
5298;BME280;14738;42.668;23.250;2023-02-19T03:49:23;48404.19;;;-141.90;37.94
5298;BME280;14738;42.668;23.250;2023-02-19T03:51:56;48394.28;;;-141.90;37.93
5298;BME280;14738;42.668;23.250;2023-02-19T03:54:38;48404.19;;;-141.90;38.04
5298;BME280;14738;42.668;23.250;2023-02-19T03:57:21;48410.16;;;-141.90;37.95
5298;BME280;14738;42.668;23.250;2023-02-19T03:59:54;48422.06;;;-141.90;38.07
5298;BME280;14738;42.668;23.250;2023-02-19T04:05:14;48400.22;;;-141.90;37.12
5298;BME280;14738;42.668;23.250;2023-02-19T04:07:45;48433.97;;;-141.90;36.99
5298;BME280;14738;42.668;23.250;2023-02-19T04:10:13;48439.94;;;-141.90;37.13
5298;BME280;14738;42.668;23.250;2023-02-19T04:12:42;48398.25;;;-141.90;37.01
5298;BME280;14738;42.668;23.250;2023-02-19T04:15:13;48412.13;;;-141.90;36.63
5298;BME280;14738;42.668;23.250;2023-02-19T04:17:45;48390.31;;;-141.90;36.77
5298;BME280;14738;42.668;23.250;2023-02-19T04:20:12;48382.34;;;-141.90;36.71
5298;BME280;14738;42.668;23.250;2023-02-19T04:22:39;48398.25;;;-141.90;36.88
5298;BME280;14738;42.668;23.250;2023-02-19T04:25:06;48402.22;;;-141.90;36.46
5298;BME280;14738;42.668;23.250;2023-02-19T04:27:36;48406.19;;;-141.90;36.52
5298;BME280;14738;42.668;23.250;2023-02-19T04:30:04;48410.16;;;-141.90;36.48
5298;BME280;14738;42.668;23.250;2023-02-19T04:32:30;48378.38;;;-141.90;36.29
5298;BME280;14738;42.668;23.250;2023-02-19T04:34:55;48390.31;;;-141.90;35.94
5298;BME280;14738;42.668;23.250;2023-02-19T04:37:20;48394.28;;;-141.90;36.17
5298;BME280;14738;42.668;23.250;2023-02-19T04:39:46;48374.41;;;-141.90;35.74
5298;BME280;14738;42.668;23.250;2023-02-19T04:42:11;48394.28;;;-141.90;35.80
5298;BME280;14738;42.668;23.250;2023-02-19T04:44:37;48433.97;;;-141.90;36.32
5298;BME280;14738;42.668;23.250;2023-02-19T04:47:02;48388.31;;;-141.90;36.59
5298;BME280;14738;42.668;23.250;2023-02-19T04:49:28;48394.28;;;-141.90;36.68
5298;BME280;14738;42.668;23.250;2023-02-19T04:51:53;48418.09;;;-141.90;36.85
5298;BME280;14738;42.668;23.250;2023-02-19T04:54:18;48414.13;;;-141.90;36.36
5298;BME280;14738;42.668;23.250;2023-02-19T04:56:44;48406.19;;;-141.90;36.11
5298;BME280;14738;42.668;23.250;2023-02-19T04:59:09;48414.13;;;-141.90;36.08
5298;BME280;14738;42.668;23.250;2023-02-19T05:01:35;48394.28;;;-141.90;36.80
5298;BME280;14738;42.668;23.250;2023-02-19T05:04:00;48378.38;;;-141.90;37.06
5298;BME280;14738;42.668;23.250;2023-02-19T05:06:25;48354.56;;;-141.90;36.93
5298;BME280;14738;42.668;23.250;2023-02-19T05:08:51;48418.09;;;-141.90;37.03
5298;BME280;14738;42.668;23.250;2023-02-19T05:11:17;48390.31;;;-141.90;36.86
5298;BME280;14738;42.668;23.250;2023-02-19T05:13:42;48406.19;;;-141.90;36.73
5298;BME280;14738;42.668;23.250;2023-02-19T05:16:13;48362.50;;;-141.90;37.33
5298;BME280;14738;42.668;23.250;2023-02-19T05:18:41;48398.25;;;-141.90;37.11
5298;BME280;14738;42.668;23.250;2023-02-19T05:21:08;48410.16;;;-141.90;37.21
5298;BME280;14738;42.668;23.250;2023-02-19T05:23:33;48382.34;;;-141.90;36.97
5298;BME280;14738;42.668;23.250;2023-02-19T05:26:21;48406.19;;;-141.90;37.00
5298;BME280;14738;42.668;23.250;2023-02-19T05:28:49;48390.31;;;-141.90;37.28
5298;BME280;14738;42.668;23.250;2023-02-19T05:31:16;48408.16;;;-141.90;37.00
5298;BME280;14738;42.668;23.250;2023-02-19T05:33:42;48408.16;;;-141.90;37.14
5298;BME280;14738;42.668;23.250;2023-02-19T05:36:12;48362.50;;;-141.90;36.86
5298;BME280;14738;42.668;23.250;2023-02-19T05:38:38;48390.31;;;-141.90;37.33
5298;BME280;14738;42.668;23.250;2023-02-19T05:43:32;48360.53;;;-141.90;36.80
5298;BME280;14738;42.668;23.250;2023-02-19T05:45:58;48398.25;;;-141.90;37.10
5298;BME280;14738;42.668;23.250;2023-02-19T05:48:23;48390.31;;;-141.90;36.76
5298;BME280;14738;42.668;23.250;2023-02-19T05:50:49;48390.31;;;-141.90;36.16
5298;BME280;14738;42.668;23.250;2023-02-19T05:53:14;48380.38;;;-141.90;35.99
5298;BME280;14738;42.668;23.250;2023-02-19T05:55:40;48410.16;;;-141.90;35.56
5298;BME280;14738;42.668;23.250;2023-02-19T05:58:05;48380.38;;;-141.90;35.16
5298;BME280;14738;42.668;23.250;2023-02-19T06:00:32;48414.13;;;-141.90;34.41
5298;BME280;14738;42.668;23.250;2023-02-19T06:02:57;48350.59;;;-141.90;33.98
5298;BME280;14738;42.668;23.250;2023-02-19T06:05:23;48396.25;;;-141.90;33.26
5298;BME280;14738;42.668;23.250;2023-02-19T06:07:48;48372.44;;;-141.90;32.34
5298;BME280;14738;42.668;23.250;2023-02-19T06:10:17;48368.47;;;-141.90;32.05
5298;BME280;14738;42.668;23.250;2023-02-19T06:12:42;48354.56;;;-141.90;32.07
5298;BME280;14738;42.668;23.250;2023-02-19T06:15:08;48386.34;;;-141.90;31.80
5298;BME280;14738;42.668;23.250;2023-02-19T06:17:33;48396.25;;;-141.90;31.79
5298;BME280;14738;42.668;23.250;2023-02-19T06:19:59;48402.22;;;-141.90;31.73
5298;BME280;14738;42.668;23.250;2023-02-19T06:22:25;48376.41;;;-141.90;31.67
5298;BME280;14738;42.668;23.250;2023-02-19T06:24:51;48402.22;;;-141.90;31.64
5298;BME280;14738;42.668;23.250;2023-02-19T06:27:16;48380.38;;;-141.90;31.83
5298;BME280;14738;42.668;23.250;2023-02-19T06:29:42;48382.34;;;-141.90;31.65
5298;BME280;14738;42.668;23.250;2023-02-19T06:32:07;48394.28;;;-141.90;32.00
5298;BME280;14738;42.668;23.250;2023-02-19T06:34:33;48404.19;;;-141.90;31.60
5298;BME280;14738;42.668;23.250;2023-02-19T06:36:59;48426.03;;;-141.90;31.48
5298;BME280;14738;42.668;23.250;2023-02-19T06:39:26;48380.38;;;-141.90;30.92
5298;BME280;14738;42.668;23.250;2023-02-19T06:41:55;48356.56;;;-141.90;30.96
5298;BME280;14738;42.668;23.250;2023-02-19T06:44:21;48384.34;;;-141.90;30.68
5298;BME280;14738;42.668;23.250;2023-02-19T06:46:47;48392.28;;;-141.90;30.14
5298;BME280;14738;42.668;23.250;2023-02-19T06:49:12;48406.19;;;-141.90;30.10
5298;BME280;14738;42.668;23.250;2023-02-19T06:51:39;48390.31;;;-141.90;30.12
5298;BME280;14738;42.668;23.250;2023-02-19T06:54:05;48414.13;;;-141.90;29.56
5298;BME280;14738;42.668;23.250;2023-02-19T06:56:36;48422.06;;;-141.90;29.24
5298;BME280;14738;42.668;23.250;2023-02-19T06:59:06;48439.94;;;-141.90;28.78
5298;BME280;14738;42.668;23.250;2023-02-19T07:01:35;48378.38;;;-141.90;29.58
5298;BME280;14738;42.668;23.250;2023-02-19T07:04:02;48378.38;;;-141.90;29.38
5298;BME280;14738;42.668;23.250;2023-02-19T07:06:29;48374.41;;;-141.90;29.34
5298;BME280;14738;42.668;23.250;2023-02-19T07:08:56;48408.16;;;-141.90;29.34
5298;BME280;14738;42.668;23.250;2023-02-19T07:11:22;48414.13;;;-141.90;28.45
5298;BME280;14738;42.668;23.250;2023-02-19T07:13:53;48437.94;;;-141.90;28.67
5298;BME280;14738;42.668;23.250;2023-02-19T07:16:19;48362.50;;;-141.90;28.72
5298;BME280;14738;42.668;23.250;2023-02-19T07:18:45;48384.34;;;-141.90;29.28
5298;BME280;14738;42.668;23.250;2023-02-19T07:21:12;48410.16;;;-141.90;28.97
5298;BME280;14738;42.668;23.250;2023-02-19T07:23:38;48386.34;;;-141.90;29.26
5298;BME280;14738;42.668;23.250;2023-02-19T07:26:07;48378.38;;;-141.90;29.23
5298;BME280;14738;42.668;23.250;2023-02-19T07:28:34;48376.41;;;-141.90;29.24
5298;BME280;14738;42.668;23.250;2023-02-19T07:31:01;48426.03;;;-141.90;28.71
5298;BME280;14738;42.668;23.250;2023-02-19T07:33:26;48406.19;;;-141.90;28.87
5298;BME280;14738;42.668;23.250;2023-02-19T07:35:52;48418.09;;;-141.90;28.96
5298;BME280;14738;42.668;23.250;2023-02-19T07:38:19;48390.31;;;-141.90;28.96
5298;BME280;14738;42.668;23.250;2023-02-19T07:40:55;48364.50;;;-141.90;28.88
5298;BME280;14738;42.668;23.250;2023-02-19T07:43:23;48382.34;;;-141.90;28.69
5298;BME280;14738;42.668;23.250;2023-02-19T07:45:49;48422.06;;;-141.90;28.86
5298;BME280;14738;42.668;23.250;2023-02-19T07:48:15;48432.00;;;-141.90;29.04
5298;BME280;14738;42.668;23.250;2023-02-19T07:50:40;48416.09;;;-141.90;29.22
5298;BME280;14738;42.668;23.250;2023-02-19T07:53:06;48430.00;;;-141.90;28.68
5298;BME280;14738;42.668;23.250;2023-02-19T07:55:32;48398.25;;;-141.90;28.89
5298;BME280;14738;42.668;23.250;2023-02-19T07:57:58;48374.41;;;-141.90;28.97
5298;BME280;14738;42.668;23.250;2023-02-19T08:00:25;48394.28;;;-141.90;28.93
5298;BME280;14738;42.668;23.250;2023-02-19T08:02:51;48384.34;;;-141.90;28.74
5298;BME280;14738;42.668;23.250;2023-02-19T08:05:30;48394.28;;;-141.90;29.16
5298;BME280;14738;42.668;23.250;2023-02-19T08:07:57;48398.25;;;-141.90;28.76
5298;BME280;14738;42.668;23.250;2023-02-19T08:10:23;48408.16;;;-141.90;28.53
5298;BME280;14738;42.668;23.250;2023-02-19T08:13:12;48380.38;;;-141.90;28.45
5298;BME280;14738;42.668;23.250;2023-02-19T08:16:16;48386.34;;;-141.90;28.87
5298;BME280;14738;42.668;23.250;2023-02-19T08:18:44;48414.13;;;-141.90;27.94
5298;BME280;14738;42.668;23.250;2023-02-19T08:21:11;48400.22;;;-141.90;28.37
5298;BME280;14738;42.668;23.250;2023-02-19T08:23:37;48390.31;;;-141.90;27.88
5298;BME280;14738;42.668;23.250;2023-02-19T08:26:03;48418.09;;;-141.90;28.69
5298;BME280;14738;42.668;23.250;2023-02-19T08:28:29;48402.22;;;-141.90;28.42
5298;BME280;14738;42.668;23.250;2023-02-19T08:31:01;48406.19;;;-141.90;27.80
5298;BME280;14738;42.668;23.250;2023-02-19T08:33:28;48418.09;;;-141.90;27.63
5298;BME280;14738;42.668;23.250;2023-02-19T08:35:55;48418.09;;;-141.90;27.81
5298;BME280;14738;42.668;23.250;2023-02-19T08:38:20;48386.34;;;-141.90;27.80
5298;BME280;14738;42.668;23.250;2023-02-19T08:40:46;48430.00;;;-141.90;27.67
5298;BME280;14738;42.668;23.250;2023-02-19T08:43:14;48404.19;;;-141.90;27.95
5298;BME280;14738;42.668;23.250;2023-02-19T08:45:42;48426.03;;;-141.90;27.74
5298;BME280;14738;42.668;23.250;2023-02-19T08:48:08;48406.19;;;-141.90;27.39
5298;BME280;14738;42.668;23.250;2023-02-19T08:50:36;48402.22;;;-141.90;27.68
5298;BME280;14738;42.668;23.250;2023-02-19T08:53:02;48398.25;;;-141.90;28.23
5298;BME280;14738;42.668;23.250;2023-02-19T08:55:28;48428.03;;;-141.90;28.12
5298;BME280;14738;42.668;23.250;2023-02-19T08:57:54;48406.19;;;-141.90;28.33
5298;BME280;14738;42.668;23.250;2023-02-19T09:00:19;48406.19;;;-141.90;28.18
5298;BME280;14738;42.668;23.250;2023-02-19T09:02:46;48414.13;;;-141.90;28.02
5298;BME280;14738;42.668;23.250;2023-02-19T09:05:11;48420.09;;;-141.90;28.25
5298;BME280;14738;42.668;23.250;2023-02-19T09:07:37;48392.28;;;-141.90;27.87
5298;BME280;14738;42.668;23.250;2023-02-19T09:10:03;48432.00;;;-141.90;27.84
5298;BME280;14738;42.668;23.250;2023-02-19T09:12:29;48418.09;;;-141.90;27.75
5298;BME280;14738;42.668;23.250;2023-02-19T09:14:54;48404.19;;;-141.90;27.85
5298;BME280;14738;42.668;23.250;2023-02-19T09:17:20;48410.16;;;-141.90;28.08
5298;BME280;14738;42.668;23.250;2023-02-19T09:19:45;48388.31;;;-141.90;27.59
5298;BME280;14738;42.668;23.250;2023-02-19T09:22:11;48432.00;;;-141.90;27.73
5298;BME280;14738;42.668;23.250;2023-02-19T09:24:36;48386.34;;;-141.90;27.77
5298;BME280;14738;42.668;23.250;2023-02-19T09:27:02;48441.91;;;-141.90;27.50
5298;BME280;14738;42.668;23.250;2023-02-19T09:29:28;48418.09;;;-141.90;27.50
5298;BME280;14738;42.668;23.250;2023-02-19T09:31:58;48420.09;;;-141.90;27.72
5298;BME280;14738;42.668;23.250;2023-02-19T09:34:25;48414.13;;;-141.90;28.04
5298;BME280;14738;42.668;23.250;2023-02-19T09:36:51;48418.09;;;-141.90;27.67
5298;BME280;14738;42.668;23.250;2023-02-19T09:39:17;48394.28;;;-141.90;26.90
5298;BME280;14738;42.668;23.250;2023-02-19T09:41:45;48432.00;;;-141.90;26.74
5298;BME280;14738;42.668;23.250;2023-02-19T09:46:52;48426.03;;;-141.90;26.92
5298;BME280;14738;42.668;23.250;2023-02-19T09:49:34;48414.13;;;-141.90;26.74
5298;BME280;14738;42.668;23.250;2023-02-19T09:54:46;48388.31;;;-141.90;26.54
5298;BME280;14738;42.668;23.250;2023-02-19T09:57:18;48420.09;;;-141.90;26.06
5298;BME280;14738;42.668;23.250;2023-02-19T10:04:42;48432.00;;;-141.90;25.81
5298;BME280;14738;42.668;23.250;2023-02-19T10:07:11;48461.78;;;-141.90;25.47
5298;BME280;14738;42.668;23.250;2023-02-19T10:09:37;48430.00;;;-141.90;25.88
5298;BME280;14738;42.668;23.250;2023-02-19T10:12:12;48457.81;;;-141.90;26.13
5298;BME280;14738;42.668;23.250;2023-02-19T10:14:43;48453.81;;;-141.90;25.85
5298;BME280;14738;42.668;23.250;2023-02-19T10:17:17;48457.81;;;-141.90;24.96
5298;BME280;14738;42.668;23.250;2023-02-19T10:19:45;48416.09;;;-141.90;25.45
5298;BME280;14738;42.668;23.250;2023-02-19T10:22:12;48426.03;;;-141.90;25.65
5298;BME280;14738;42.668;23.250;2023-02-19T10:24:40;48437.94;;;-141.90;25.78
5298;BME280;14738;42.668;23.250;2023-02-19T10:27:14;48428.03;;;-141.90;25.56
5298;BME280;14738;42.668;23.250;2023-02-19T10:29:42;48418.09;;;-141.90;25.58
5298;BME280;14738;42.668;23.250;2023-02-19T10:32:17;48406.19;;;-141.90;25.76
5298;BME280;14738;42.668;23.250;2023-02-19T10:34:45;48447.88;;;-141.90;25.45
5298;BME280;14738;42.668;23.250;2023-02-19T10:37:14;48437.94;;;-141.90;25.79
5298;BME280;14738;42.668;23.250;2023-02-19T10:39:48;48422.06;;;-141.90;26.14
5298;BME280;14738;42.668;23.250;2023-02-19T10:42:20;48451.84;;;-141.90;25.64
5298;BME280;14738;42.668;23.250;2023-02-19T10:44:52;48398.25;;;-141.90;26.06
5298;BME280;14738;42.668;23.250;2023-02-19T10:47:21;48418.09;;;-141.90;25.29
5298;BME280;14738;42.668;23.250;2023-02-19T10:49:49;48402.22;;;-141.90;25.70
5298;BME280;14738;42.668;23.250;2023-02-19T10:52:23;48424.06;;;-141.90;25.53
5298;BME280;14738;42.668;23.250;2023-02-19T10:55:14;48441.91;;;-141.90;25.65
5298;BME280;14738;42.668;23.250;2023-02-19T10:57:40;48437.94;;;-141.90;25.63
5298;BME280;14738;42.668;23.250;2023-02-19T11:02:42;48441.91;;;-141.90;26.01
5298;BME280;14738;42.668;23.250;2023-02-19T11:07:35;48424.06;;;-141.90;25.42
5298;BME280;14738;42.668;23.250;2023-02-19T11:10:03;48437.94;;;-141.90;25.07
5298;BME280;14738;42.668;23.250;2023-02-19T11:12:31;48441.91;;;-141.90;25.58
5298;BME280;14738;42.668;23.250;2023-02-19T11:20:28;48412.13;;;-141.90;25.18
5298;BME280;14738;42.668;23.250;2023-02-19T11:22:58;48455.81;;;-141.90;25.38
5298;BME280;14738;42.668;23.250;2023-02-19T11:25:26;48433.97;;;-141.90;25.14
5298;BME280;14738;42.668;23.250;2023-02-19T11:30:44;48416.09;;;-141.90;25.10
5298;BME280;14738;42.668;23.250;2023-02-19T11:33:18;48449.84;;;-141.90;25.04
5298;BME280;14738;42.668;23.250;2023-02-19T11:35:49;48435.97;;;-141.90;24.68
5298;BME280;14738;42.668;23.250;2023-02-19T11:38:17;48437.94;;;-141.90;24.80
5298;BME280;14738;42.668;23.250;2023-02-19T11:40:44;48437.94;;;-141.90;25.14
5298;BME280;14738;42.668;23.250;2023-02-19T11:48:39;48414.13;;;-141.90;24.18
5298;BME280;14738;42.668;23.250;2023-02-19T11:51:18;48445.88;;;-141.90;24.26
5298;BME280;14738;42.668;23.250;2023-02-19T11:53:51;48426.03;;;-141.90;23.84
5298;BME280;14738;42.668;23.250;2023-02-19T11:56:23;48451.84;;;-141.90;24.01
5298;BME280;14738;42.668;23.250;2023-02-19T11:58:58;48437.94;;;-141.90;23.78
5298;BME280;14738;42.668;23.250;2023-02-19T12:01:37;48465.75;;;-141.90;23.95
5298;BME280;14738;42.668;23.250;2023-02-19T12:23:17;48449.84;;;-141.90;23.90
5298;BME280;14738;42.668;23.250;2023-02-19T12:33:54;48437.94;;;-141.90;23.61
5298;BME280;14738;42.668;23.250;2023-02-19T12:42:25;48430.00;;;-141.90;23.50
5298;BME280;14738;42.668;23.250;2023-02-19T12:44:47;48437.94;;;-141.90;23.76
5298;BME280;14738;42.668;23.250;2023-02-19T12:47:30;48414.13;;;-141.90;23.31
5298;BME280;14738;42.668;23.250;2023-02-19T12:50:06;48422.06;;;-141.90;23.63
5298;BME280;14738;42.668;23.250;2023-02-19T12:52:40;48414.13;;;-141.90;23.82
5298;BME280;14738;42.668;23.250;2023-02-19T12:55:32;48428.03;;;-141.90;23.41
5298;BME280;14738;42.668;23.250;2023-02-19T12:58:01;48445.88;;;-141.90;23.37
5298;BME280;14738;42.668;23.250;2023-02-19T13:00:40;48366.47;;;-141.90;23.58
5298;BME280;14738;42.668;23.250;2023-02-19T13:03:31;48418.09;;;-141.90;22.87
5298;BME280;14738;42.668;23.250;2023-02-19T13:06:13;48430.00;;;-141.90;23.52
5298;BME280;14738;42.668;23.250;2023-02-19T13:08:58;48414.13;;;-141.90;23.83
5298;BME280;14738;42.668;23.250;2023-02-19T13:11:32;48437.94;;;-141.90;23.58
5298;BME280;14738;42.668;23.250;2023-02-19T13:16:38;48291.03;;;-141.90;23.53
5298;BME280;14738;42.668;23.250;2023-02-19T13:19:06;48432.00;;;-141.90;23.70
5298;BME280;14738;42.668;23.250;2023-02-19T13:21:34;48457.81;;;-141.90;23.66
5298;BME280;14738;42.668;23.250;2023-02-19T13:24:22;48437.94;;;-141.90;23.63
5298;BME280;14738;42.668;23.250;2023-02-19T13:36:00;48435.97;;;-141.90;23.48
5298;BME280;14738;42.668;23.250;2023-02-19T13:38:32;48414.13;;;-141.90;23.66
5298;BME280;14738;42.668;23.250;2023-02-19T13:40:58;48414.13;;;-141.90;24.25
5298;BME280;14738;42.668;23.250;2023-02-19T13:43:32;48437.94;;;-141.90;24.02
5298;BME280;14738;42.668;23.250;2023-02-19T13:46:03;48449.84;;;-141.90;24.00
5298;BME280;14738;42.668;23.250;2023-02-19T13:48:33;48430.00;;;-141.90;24.05
5298;BME280;14738;42.668;23.250;2023-02-19T13:56:47;48388.31;;;-141.90;24.34
5298;BME280;14738;42.668;23.250;2023-02-19T13:59:37;48432.00;;;-141.90;24.18
5298;BME280;14738;42.668;23.250;2023-02-19T14:04:45;48424.06;;;-141.90;24.44
5298;BME280;14738;42.668;23.250;2023-02-19T14:14:53;48398.25;;;-141.90;24.31
5298;BME280;14738;42.668;23.250;2023-02-19T14:19:59;48422.06;;;-141.90;24.54
5298;BME280;14738;42.668;23.250;2023-02-19T14:28:29;48428.03;;;-141.90;23.86
5298;BME280;14738;42.668;23.250;2023-02-19T14:33:47;48430.00;;;-141.90;23.99
5298;BME280;14738;42.668;23.250;2023-02-19T14:36:46;48430.00;;;-141.90;23.51
5298;BME280;14738;42.668;23.250;2023-02-19T14:39:28;48439.94;;;-141.90;23.55
5298;BME280;14738;42.668;23.250;2023-02-19T14:41:57;48412.13;;;-141.90;24.18
5298;BME280;14738;42.668;23.250;2023-02-19T14:44:26;48424.06;;;-141.90;24.39
5298;BME280;14738;42.668;23.250;2023-02-19T14:47:01;48406.19;;;-141.90;24.01
5298;BME280;14738;42.668;23.250;2023-02-19T14:49:43;48439.94;;;-141.90;24.12
5298;BME280;14738;42.668;23.250;2023-02-19T14:52:18;48437.94;;;-141.90;23.82
5298;BME280;14738;42.668;23.250;2023-02-19T14:54:54;48426.03;;;-141.90;23.46
5298;BME280;14738;42.668;23.250;2023-02-19T14:57:27;48422.06;;;-141.90;24.28
5298;BME280;14738;42.668;23.250;2023-02-19T14:59:58;48414.13;;;-141.90;24.09
5298;BME280;14738;42.668;23.250;2023-02-19T15:02:26;48428.03;;;-141.90;24.49
5298;BME280;14738;42.668;23.250;2023-02-19T15:04:52;48398.25;;;-141.90;24.57
5298;BME280;14738;42.668;23.250;2023-02-19T15:07:29;48414.13;;;-141.90;24.64
5298;BME280;14738;42.668;23.250;2023-02-19T15:10:01;48437.94;;;-141.90;24.30